Time;durP1;ratioP1;P1;durP2;ratioP2;P2;SDS_P1;SDS_P2;PMS_P1;PMS_P2;Temp;Humidity;BMP_temperature;BMP_pressure;BME280_temperature;BME280_humidity;BME280_pressure;Samples;Min_cycle;Max_cycle;Signal;HPM_P1;HPM_P2
2021/05/03 00:00:10;;;;;;;5.10;4.37;;;;;;;6.82;78.78;153112.38;5053644;28;20418;-76
2021/05/03 00:02:45;;;;;;;5.53;4.60;;;;;;;6.76;79.66;153096.88;5035294;28;20477;-76
2021/05/03 00:05:22;;;;;;;6.30;5.50;;;;;;;6.71;79.97;153083.97;5036524;28;20446;-76
2021/05/03 00:07:57;;;;;;;5.50;4.97;;;;;;;6.65;78.10;153068.47;5019673;28;20450;-76
2021/05/03 00:10:33;;;;;;;5.43;4.50;;;;;;;6.60;77.93;153055.56;5053715;28;20894;-76
2021/05/03 00:13:08;;;;;;;5.63;5.13;;;;;;;6.55;78.12;153042.66;5035322;28;20545;-76
2021/05/03 00:15:44;;;;;;;6.30;5.70;;;;;;;6.49;77.37;153027.16;5053388;28;20777;-76
2021/05/03 00:18:19;;;;;;;6.87;5.20;;;;;;;6.41;77.88;153007.81;5052991;28;20466;-76
2021/05/03 00:20:54;;;;;;;5.90;5.30;;;;;;;6.35;79.49;152991.06;5035281;28;20438;-76
2021/05/03 00:23:29;;;;;;;5.87;4.97;;;;;;;6.31;79.01;152980.72;5035583;28;20470;-76
2021/05/03 00:26:07;;;;;;;5.97;5.37;;;;;;;6.27;79.64;152970.41;5019798;28;20465;-76
2021/05/03 00:28:42;;;;;;;5.07;4.57;;;;;;;6.23;80.42;152961.38;5034633;28;20441;-76
2021/05/03 00:31:18;;;;;;;6.53;5.83;;;;;;;6.16;81.04;152942.03;5034278;28;20507;-76
2021/05/03 00:33:53;;;;;;;6.07;5.13;;;;;;;6.13;81.14;152935.59;5035135;28;20466;-76
2021/05/03 00:36:27;;;;;;;6.13;5.13;;;;;;;6.12;80.88;152932.97;5052418;28;20531;-76
2021/05/03 00:39:03;;;;;;;6.20;5.30;;;;;;;6.12;82.03;152932.97;5035206;28;20442;-76
2021/05/03 00:41:39;;;;;;;6.87;5.70;;;;;;;6.07;80.72;152921.38;5053056;28;20539;-76
2021/05/03 00:44:14;;;;;;;5.30;4.80;;;;;;;6.00;81.12;152903.34;5034904;28;20463;-76
2021/05/03 00:46:49;;;;;;;6.03;5.43;;;;;;;5.97;80.07;152895.59;5034080;28;20449;-77
2021/05/03 00:49:25;;;;;;;5.00;4.33;;;;;;;5.90;81.22;152877.56;5046677;28;20436;-76
2021/05/03 00:52:00;;;;;;;6.00;5.13;;;;;;;5.83;82.71;152859.41;5034696;28;20556;-76
2021/05/03 00:54:35;;;;;;;5.97;5.33;;;;;;;5.78;83.72;152846.53;5034439;28;20430;-76
2021/05/03 00:57:11;;;;;;;6.93;5.13;;;;;;;5.74;83.80;152834.94;5034855;28;20480;-76
2021/05/03 00:59:46;;;;;;;6.30;5.70;;;;;;;5.72;83.77;152831.03;5034832;28;20453;-76
2021/05/03 01:02:22;;;;;;;6.23;5.63;;;;;;;5.68;83.96;152819.44;5034602;28;20948;-76
2021/05/03 01:04:57;;;;;;;6.30;5.70;;;;;;;5.68;83.01;152820.75;5034190;28;20442;-76
2021/05/03 01:07:32;;;;;;;7.90;6.10;;;;;;;5.70;84.54;152824.59;5034446;28;20461;-76
2021/05/03 01:10:08;;;;;;;8.00;6.07;;;;;;;5.69;84.60;152823.34;5019663;28;20433;-76
2021/05/03 01:12:45;;;;;;;6.80;5.20;;;;;;;5.72;86.50;152831.03;5034873;28;20477;-76
2021/05/03 01:15:23;;;;;;;6.13;5.53;;;;;;;5.72;88.07;152829.78;5034049;28;20447;-76
2021/05/03 01:17:59;;;;;;;7.00;6.30;;;;;;;5.73;87.62;152833.63;5034825;28;20443;-76
2021/05/03 01:20:35;;;;;;;6.20;5.30;;;;;;;5.72;87.13;152831.03;5034761;28;20479;-76
2021/05/03 01:23:11;;;;;;;7.80;7.00;;;;;;;5.72;87.31;152831.03;5019371;28;20487;-76
2021/05/03 01:25:47;;;;;;;8.33;6.03;;;;;;;5.71;87.52;152828.47;5038172;28;20547;-76
2021/05/03 01:28:22;;;;;;;8.23;7.10;;;;;;;5.73;88.83;152833.63;5045469;28;20556;-76
2021/05/03 01:30:59;;;;;;;7.87;6.70;;;;;;;5.73;89.48;152833.63;5036373;28;20467;-76
2021/05/03 01:33:34;;;;;;;8.67;7.00;;;;;;;5.75;89.94;152838.78;5032703;28;20475;-76
2021/05/03 01:36:09;;;;;;;9.10;7.33;;;;;;;5.75;89.61;152838.78;5036250;28;20855;-76
2021/05/03 01:38:45;;;;;;;9.40;8.13;;;;;;;5.73;88.96;152833.63;5035008;28;20437;-76
2021/05/03 01:41:20;;;;;;;9.10;8.20;;;;;;;5.72;90.05;152831.03;5037668;28;20919;-76
2021/05/03 01:43:55;;;;;;;8.20;7.17;;;;;;;5.69;90.79;152823.34;5038132;28;20428;-76
2021/05/03 01:46:33;;;;;;;10.73;8.60;;;;;;;5.67;90.34;152818.16;5018300;28;20460;-76
2021/05/03 01:49:09;;;;;;;8.13;7.33;;;;;;;5.64;91.08;152810.41;5021961;28;20437;-76
2021/05/03 01:51:44;;;;;;;8.37;7.50;;;;;;;5.57;89.63;152792.38;5036511;28;20440;-76
2021/05/03 01:54:20;;;;;;;8.77;7.63;;;;;;;5.49;88.84;152773.03;5018055;28;20851;-77
2021/05/03 01:56:55;;;;;;;10.10;7.73;;;;;;;5.43;90.37;152757.53;5038185;28;20455;-76
2021/05/03 01:59:34;;;;;;;9.00;7.00;;;;;;;5.43;90.10;152756.25;5038719;28;20452;-76
2021/05/03 02:02:09;;;;;;;9.17;7.83;;;;;;;5.41;90.72;152751.09;5036226;28;21156;-76
2021/05/03 02:04:44;;;;;;;8.87;7.83;;;;;;;5.36;90.97;152738.22;5048897;28;20429;-76
2021/05/03 02:07:19;;;;;;;8.13;7.10;;;;;;;5.29;91.53;152720.19;5038083;28;20495;-76
2021/05/03 02:09:55;;;;;;;9.30;7.77;;;;;;;5.29;92.05;152720.19;5038003;28;20442;-76
2021/05/03 02:12:30;;;;;;;8.90;7.50;;;;;;;5.25;90.35;152709.84;5038073;28;20445;-76
2021/05/03 02:15:07;;;;;;;11.27;8.30;;;;;;;5.24;92.80;152707.28;5037344;28;20443;-76
2021/05/03 02:17:42;;;;;;;9.17;7.67;;;;;;;5.21;93.20;152699.56;5034425;28;20464;-76
2021/05/03 02:20:18;;;;;;;9.03;7.80;;;;;;;5.18;92.85;152691.81;5053383;28;20494;-76
2021/05/03 02:22:52;;;;;;;9.57;8.00;;;;;;;5.14;93.43;152681.47;5037128;28;20926;-76
2021/05/03 02:25:29;;;;;;;9.37;8.37;;;;;;;5.12;91.78;152677.63;5055649;28;20436;-77
2021/05/03 02:28:04;;;;;;;8.73;7.57;;;;;;;5.10;92.19;152671.19;5043324;28;20810;-76
2021/05/03 02:30:40;;;;;;;8.77;7.87;;;;;;;5.08;91.25;152666.03;5023796;28;20462;-76
2021/05/03 02:33:15;;;;;;;8.90;7.87;;;;;;;5.03;91.68;152654.41;5038200;28;20479;-76
2021/05/03 02:35:50;;;;;;;10.50;8.37;;;;;;;5.02;92.71;152650.56;5037302;28;20416;-76
2021/05/03 02:38:25;;;;;;;9.97;8.33;;;;;;;5.01;92.17;152647.97;5034484;28;20452;-76
2021/05/03 02:41:01;;;;;;;9.33;8.40;;;;;;;5.02;92.58;152650.56;5013106;28;20432;-76
2021/05/03 02:43:36;;;;;;;9.47;8.47;;;;;;;4.96;92.77;152636.38;5036829;28;20914;-76
2021/05/03 02:46:12;;;;;;;10.13;8.80;;;;;;;4.90;92.66;152620.91;5037034;28;20538;-76
2021/05/03 02:48:47;;;;;;;10.43;8.90;;;;;;;4.87;92.31;152613.22;5052419;28;20436;-76
2021/05/03 02:51:22;;;;;;;9.37;8.20;;;;;;;4.81;93.19;152599.03;5055137;28;20444;-76
2021/05/03 02:53:57;;;;;;;12.20;7.20;;;;;;;4.74;93.30;152580.97;5036260;28;20482;-76
2021/05/03 02:56:33;;;;;;;9.60;8.60;;;;;;;4.70;94.46;152569.38;5021902;28;20534;-76
2021/05/03 02:59:08;;;;;;;12.70;8.97;;;;;;;4.61;95.04;152547.47;5037027;28;20788;-76
2021/05/03 03:01:44;;;;;;;8.40;7.50;;;;;;;4.56;95.76;152534.59;5055005;28;20507;-76
2021/05/03 03:04:19;;;;;;;8.70;7.80;;;;;;;4.52;95.13;152524.28;5029317;28;20449;-76
2021/05/03 03:06:54;;;;;;;9.23;8.30;;;;;;;4.52;96.94;152523.00;5018435;28;21066;-76
2021/05/03 03:09:29;;;;;;;10.30;8.23;;;;;;;4.46;94.88;152508.81;5034900;28;20864;-76
2021/05/03 03:12:08;;;;;;;9.67;8.67;;;;;;;4.45;95.91;152504.97;5023358;28;20455;-76
2021/05/03 03:14:43;;;;;;;10.07;9.00;;;;;;;4.44;97.65;152503.69;5036659;28;20472;-76
2021/05/03 03:17:18;;;;;;;10.57;9.17;;;;;;;4.41;96.24;152495.94;5037123;28;20440;-76
2021/05/03 03:19:53;;;;;;;11.23;8.80;;;;;;;4.40;97.10;152493.34;5036588;28;20455;-76
2021/05/03 03:22:28;;;;;;;12.20;9.87;;;;;;;4.38;95.87;152488.22;5036031;28;20874;-76
2021/05/03 03:25:04;;;;;;;11.07;8.90;;;;;;;4.37;98.37;152485.63;5026300;28;20858;-76
2021/05/03 03:27:40;;;;;;;10.73;9.40;;;;;;;4.39;96.87;152489.50;5036383;28;20451;-76
2021/05/03 03:30:17;;;;;;;11.93;9.40;;;;;;;4.42;96.91;152497.25;5020795;28;20456;-76
2021/05/03 03:32:52;;;;;;;10.63;9.20;;;;;;;4.46;97.30;152507.53;5036075;28;20493;-76
2021/05/03 03:35:28;;;;;;;12.03;8.90;;;;;;;4.45;97.31;152504.97;5037800;28;20462;-76
2021/05/03 03:38:03;;;;;;;11.60;10.00;;;;;;;4.47;97.03;152510.13;5036378;28;20432;-76
2021/05/03 03:40:38;;;;;;;10.87;9.77;;;;;;;4.47;97.52;152511.41;5036185;28;20444;-76
2021/05/03 03:43:15;;;;;;;11.60;9.50;;;;;;;4.48;97.55;152513.97;5053397;28;20447;-76
2021/05/03 03:45:50;;;;;;;11.27;9.47;;;;;;;4.49;97.31;152516.56;5022426;28;21119;-76
2021/05/03 03:48:25;;;;;;;10.60;9.50;;;;;;;4.49;97.11;152516.56;5021370;28;20455;-76
2021/05/03 03:51:00;;;;;;;10.33;8.30;;;;;;;4.48;98.75;152513.97;5035671;28;20435;-76
2021/05/03 03:53:35;;;;;;;13.07;9.37;;;;;;;4.48;97.39;152512.66;5035531;28;20475;-75
2021/05/03 03:56:12;;;;;;;14.10;10.43;;;;;;;4.48;97.73;152512.66;5035598;28;20937;-75
2021/05/03 03:58:48;;;;;;;11.20;9.90;;;;;;;4.48;97.24;152513.97;5035551;28;20867;-76
2021/05/03 04:01:24;;;;;;;12.27;9.30;;;;;;;4.46;97.67;152508.81;5034788;28;20864;-76
2021/05/03 04:04:03;;;;;;;10.77;9.70;;;;;;;4.49;95.89;152515.25;5027897;28;20452;-76
2021/05/03 04:06:43;;;;;;;11.63;10.03;;;;;;;4.50;95.90;152519.09;5035288;28;20443;-76
2021/05/03 04:09:27;;;;;;;11.70;10.50;;;;;;;4.52;95.99;152524.28;5035201;28;20443;-76
2021/05/03 04:12:25;;;;;;;11.73;10.30;;;;;;;4.53;96.69;152526.84;5035590;28;20466;-76
2021/05/03 04:21:09;;;;;;;11.57;10.37;;;;;;;4.52;96.64;152524.28;5032199;28;20904;-76
2021/05/03 04:23:52;;;;;;;11.50;9.70;;;;;;;4.46;95.28;152508.81;5050442;28;20416;-76
2021/05/03 04:26:27;;;;;;;11.80;9.63;;;;;;;4.45;96.64;152504.97;5034897;28;20542;-76
2021/05/03 04:29:03;;;;;;;9.47;8.47;;;;;;;4.41;97.45;152494.66;5019783;28;20483;-76
2021/05/03 04:31:39;;;;;;;12.00;9.77;;;;;;;4.41;96.54;152495.94;5019597;28;20482;-76
2021/05/03 04:34:15;;;;;;;9.80;8.80;;;;;;;4.40;97.60;152493.34;5052573;28;20455;-76
2021/05/03 04:36:50;;;;;;;12.90;10.27;;;;;;;4.42;96.39;152498.50;5030943;28;20566;-76
2021/05/03 04:39:25;;;;;;;10.20;8.67;;;;;;;4.50;96.82;152519.09;5020879;28;20444;-76
2021/05/03 04:42:00;;;;;;;12.17;10.40;;;;;;;4.54;97.11;152528.13;5052273;28;20447;-76
2021/05/03 04:44:35;;;;;;;11.37;9.63;;;;;;;4.56;97.25;152534.59;5034704;28;20470;-76
2021/05/03 04:47:11;;;;;;;12.40;10.00;;;;;;;4.57;96.56;152537.19;5052629;28;20450;-76
2021/05/03 04:49:46;;;;;;;16.03;10.53;;;;;;;4.63;97.41;152552.59;5051899;28;20530;-76
2021/05/03 04:52:21;;;;;;;10.90;9.33;;;;;;;4.66;97.06;152560.34;5052364;28;20470;-75
2021/05/03 04:54:56;;;;;;;11.30;10.07;;;;;;;4.69;97.33;152566.78;5019018;28;20506;-76
2021/05/03 04:57:31;;;;;;;14.77;11.37;;;;;;;4.72;96.50;152575.81;5027768;28;21005;-75
2021/05/03 05:00:08;;;;;;;11.80;9.33;;;;;;;4.80;95.87;152595.13;5021850;28;20443;-74
2021/05/03 05:02:43;;;;;;;12.33;11.00;;;;;;;4.92;95.31;152627.34;5037670;28;20969;-74
2021/05/03 05:05:19;;;;;;;13.73;10.50;;;;;;;5.14;95.84;152682.78;5032039;28;20450;-75
2021/05/03 05:07:55;;;;;;;13.43;11.83;;;;;;;5.43;93.67;152756.25;5041516;28;20826;-75
2021/05/03 05:10:30;;;;;;;13.07;11.37;;;;;;;5.72;91.67;152829.78;5044153;28;20439;-77
2021/05/03 05:13:05;;;;;;;14.40;11.90;;;;;;;5.95;90.40;152890.44;5045963;28;20538;-77
2021/05/03 05:15:40;;;;;;;13.17;10.30;;;;;;;6.19;88.39;152951.06;5021592;28;20447;-77
2021/05/03 05:18:17;;;;;;;13.30;11.23;;;;;;;6.30;87.06;152979.41;5040063;28;20985;-77
2021/05/03 05:20:52;;;;;;;13.70;11.33;;;;;;;6.45;87.28;153016.88;5032214;28;21009;-77
2021/05/03 05:23:27;;;;;;;12.80;10.57;;;;;;;6.62;87.48;153060.72;5049531;28;20459;-77
2021/05/03 05:26:02;;;;;;;11.70;10.50;;;;;;;6.75;87.16;153095.56;5033876;28;20454;-77
2021/05/03 05:28:37;;;;;;;10.23;9.20;;;;;;;6.78;85.22;153100.78;5032556;28;20470;-77
2021/05/03 05:31:12;;;;;;;12.70;10.20;;;;;;;6.75;83.42;153094.31;5048770;28;20481;-77
2021/05/03 05:33:49;;;;;;;12.03;10.70;;;;;;;6.61;84.19;153058.16;5024014;28;20460;-77
2021/05/03 05:36:24;;;;;;;12.93;11.00;;;;;;;6.43;84.39;153013.03;5039971;28;20472;-76
2021/05/03 05:39:00;;;;;;;10.47;9.30;;;;;;;6.39;84.73;153002.66;5057264;28;20879;-77
2021/05/03 05:41:35;;;;;;;11.37;10.03;;;;;;;6.30;86.09;152978.16;5024553;28;20452;-77
2021/05/03 05:44:11;;;;;;;11.40;9.53;;;;;;;6.36;87.15;152993.63;5038612;28;20448;-77
2021/05/03 05:46:47;;;;;;;15.43;10.70;;;;;;;6.31;84.87;152980.72;5040234;28;20463;-77
2021/05/03 05:49:23;;;;;;;13.70;10.50;;;;;;;6.58;86.17;153050.41;5034935;28;20444;-77
2021/05/03 05:51:58;;;;;;;11.10;10.00;;;;;;;6.83;84.50;153114.94;5037882;28;20943;-77
2021/05/03 05:54:34;;;;;;;11.87;10.57;;;;;;;7.06;84.97;153174.34;5040355;28;20936;-77
2021/05/03 05:57:09;;;;;;;14.43;11.13;;;;;;;7.43;84.70;153267.31;5038803;28;20432;-77
2021/05/03 05:59:44;;;;;;;11.20;9.93;;;;;;;7.67;81.09;153329.31;5039315;28;20460;-77
2021/05/03 06:02:19;;;;;;;12.47;10.60;;;;;;;7.94;78.99;153399.09;5057174;28;20808;-77
2021/05/03 06:04:55;;;;;;;11.70;10.00;;;;;;;8.13;77.35;153446.88;5040105;28;20452;-77
2021/05/03 06:07:30;;;;;;;13.37;9.60;;;;;;;8.43;76.01;153524.47;5039101;28;20450;-77
2021/05/03 06:10:07;;;;;;;11.87;9.90;;;;;;;8.56;75.95;153559.38;5041034;28;20484;-76
2021/05/03 06:12:42;;;;;;;11.07;9.87;;;;;;;8.85;76.62;153633.03;5028628;28;20455;-77
2021/05/03 06:15:17;;;;;;;9.83;8.83;;;;;;;9.18;76.88;153717.13;5050562;28;20451;-77
2021/05/03 06:17:52;;;;;;;14.10;9.70;;;;;;;9.42;73.60;153779.22;5035097;28;20455;-77
2021/05/03 06:20:28;;;;;;;10.70;9.60;;;;;;;9.38;71.76;153767.53;5024851;28;20463;-78
2021/05/03 06:23:05;;;;;;;10.57;9.47;;;;;;;9.51;71.33;153802.47;5052071;28;20441;-77
2021/05/03 06:25:41;;;;;;;11.13;9.93;;;;;;;9.56;70.22;153815.41;5030719;28;20436;-78
2021/05/03 06:28:16;;;;;;;10.73;9.63;;;;;;;9.91;72.07;153903.38;5032000;28;20447;-78
2021/05/03 06:30:55;;;;;;;10.90;9.90;;;;;;;10.09;69.92;153951.25;5016270;28;20479;-77
2021/05/03 06:33:30;;;;;;;9.90;8.90;;;;;;;10.32;67.04;154009.59;5015287;28;20478;-77
2021/05/03 06:36:07;;;;;;;11.70;9.03;;;;;;;10.35;67.45;154018.63;5048523;28;21091;-77
2021/05/03 06:38:42;;;;;;;10.07;9.03;;;;;;;10.57;67.72;154073.00;5042965;28;20432;-77
2021/05/03 06:41:18;;;;;;;10.00;9.00;;;;;;;10.65;65.48;154095.03;5028571;28;20445;-77
2021/05/03 06:43:53;;;;;;;10.57;9.50;;;;;;;10.98;66.58;154180.53;5011889;28;20437;-78
2021/05/03 06:46:28;;;;;;;10.17;9.17;;;;;;;11.15;63.46;154221.94;5024593;28;20447;-77
2021/05/03 06:49:03;;;;;;;10.67;9.57;;;;;;;11.21;63.64;154237.47;5031383;28;20434;-78
2021/05/03 06:51:40;;;;;;;9.47;8.43;;;;;;;11.41;62.79;154289.34;5030441;28;20465;-78
2021/05/03 06:56:41;;;;;;;10.20;9.20;;;;;;;11.79;61.03;154386.53;5071464;22;20917;-77
2021/05/03 06:59:16;;;;;;;9.53;8.53;;;;;;;12.05;60.91;154455.25;5071230;28;20548;-77
2021/05/03 07:01:52;;;;;;;10.90;9.60;;;;;;;12.16;60.46;154482.47;5072219;28;20445;-77
2021/05/03 07:04:28;;;;;;;9.87;8.83;;;;;;;12.16;59.92;154483.78;5067507;28;20895;-77
2021/05/03 07:07:04;;;;;;;10.57;8.50;;;;;;;12.34;60.78;154527.88;5073327;28;20460;-77
2021/05/03 07:09:41;;;;;;;8.97;8.07;;;;;;;12.59;59.99;154592.69;5072794;28;20439;-77
2021/05/03 07:12:20;;;;;;;9.87;8.90;;;;;;;12.75;60.63;154634.19;5056367;28;20443;-77
2021/05/03 07:14:55;;;;;;;9.60;8.60;;;;;;;12.97;58.43;154691.28;5066367;28;20460;-77
2021/05/03 07:17:30;;;;;;;11.30;10.10;;;;;;;12.93;60.57;154680.88;5055244;28;20876;-77
2021/05/03 07:20:07;;;;;;;10.00;9.00;;;;;;;13.14;57.72;154735.41;5045265;28;20455;-77
2021/05/03 07:22:43;;;;;;;9.40;8.40;;;;;;;13.12;58.71;154730.22;5071324;28;20457;-77
2021/05/03 07:25:18;;;;;;;10.37;9.37;;;;;;;13.27;58.08;154769.13;5059289;28;20473;-77
2021/05/03 07:27:54;;;;;;;10.90;9.10;;;;;;;13.48;57.64;154821.03;5070556;28;20429;-78
2021/05/03 07:30:29;;;;;;;9.37;8.50;;;;;;;13.49;56.30;154824.94;5071040;28;20483;-77
2021/05/03 07:33:05;;;;;;;12.50;9.80;;;;;;;13.57;55.82;154844.41;5070749;28;20438;-77
2021/05/03 07:35:40;;;;;;;10.23;9.10;;;;;;;13.50;55.67;154826.25;5060127;28;20823;-77
2021/05/03 07:38:16;;;;;;;10.37;9.27;;;;;;;13.74;55.94;154888.56;5071206;28;20491;-77
2021/05/03 07:40:51;;;;;;;10.53;9.53;;;;;;;13.62;56.06;154857.38;5062550;28;20446;-77
2021/05/03 07:43:26;;;;;;;11.90;10.00;;;;;;;13.59;56.01;154849.59;5058301;28;20432;-77
2021/05/03 07:46:02;;;;;;;12.63;10.57;;;;;;;13.43;56.72;154810.66;5062703;28;20453;-77
2021/05/03 07:48:37;;;;;;;9.90;8.90;;;;;;;13.50;56.92;154826.25;5055780;28;20434;-77
2021/05/03 07:51:12;;;;;;;10.13;9.13;;;;;;;13.91;54.96;154932.66;5067543;28;20441;-78
2021/05/03 07:53:48;;;;;;;10.60;9.60;;;;;;;13.78;54.49;154898.91;5069349;28;21015;-77
2021/05/03 07:56:23;;;;;;;12.53;9.40;;;;;;;13.45;54.40;154814.53;5055772;28;20574;-77
2021/05/03 07:58:59;;;;;;;9.57;8.57;;;;;;;13.85;56.59;154918.38;5069079;28;20448;-77
2021/05/03 08:01:34;;;;;;;11.90;9.17;;;;;;;13.10;52.95;154725.06;5052183;28;20796;-77
2021/05/03 08:04:08;;;;;;;8.90;8.00;;;;;;;13.13;52.80;154732.78;5063779;28;20449;-79
2021/05/03 08:06:45;;;;;;;9.90;9.00;;;;;;;12.77;53.63;154639.38;5074266;28;20448;-77
2021/05/03 08:09:21;;;;;;;10.00;9.00;;;;;;;12.43;55.64;154551.19;5060558;28;20461;-78
2021/05/03 08:11:56;;;;;;;10.43;8.53;;;;;;;12.31;56.96;154521.34;5072265;28;20542;-78
2021/05/03 08:14:31;;;;;;;10.53;9.50;;;;;;;11.98;62.06;154435.81;5071478;28;20474;-77
2021/05/03 08:17:09;;;;;;;10.83;9.67;;;;;;;11.41;59.46;154289.34;5065280;28;20868;-77
2021/05/03 08:19:45;;;;;;;11.30;10.00;;;;;;;10.95;61.63;154172.75;5066081;28;20479;-77
2021/05/03 08:22:20;;;;;;;10.97;9.87;;;;;;;11.07;63.37;154202.50;5047226;28;20441;-77
2021/05/03 08:24:56;;;;;;;10.43;9.33;;;;;;;10.87;61.25;154150.72;5055014;28;20540;-76
2021/05/03 08:27:31;;;;;;;11.43;9.47;;;;;;;10.73;62.45;154115.75;5072495;28;20431;-76
2021/05/03 08:30:08;;;;;;;11.43;10.20;;;;;;;10.52;64.23;154061.34;5068079;28;20458;-77
2021/05/03 08:32:43;;;;;;;11.80;9.93;;;;;;;10.44;64.66;154040.63;5070756;28;20438;-76
2021/05/03 08:37:59;;;;;;;12.00;10.80;;;;;;;10.22;65.09;153984.97;5016789;28;20462;-94
2021/05/03 08:40:36;;;;;;;12.07;10.27;;;;;;;9.98;64.96;153921.53;5035390;28;20480;-94
2021/05/03 08:43:11;;;;;;;11.20;10.20;;;;;;;9.85;63.84;153889.16;5035729;28;20445;-93
2021/05/03 08:45:48;;;;;;;11.13;9.10;;;;;;;9.70;64.46;153851.63;5032133;28;20445;-93
2021/05/03 08:48:27;;;;;;;12.40;11.10;;;;;;;9.83;64.19;153883.97;5035171;28;20429;-94
2021/05/03 08:51:11;;;;;;;10.77;9.77;;;;;;;9.93;64.01;153908.59;5011875;28;20473;-93
2021/05/03 08:53:55;;;;;;;11.20;9.60;;;;;;;10.06;63.00;153942.25;4995334;28;20462;-93
2021/05/03 08:56:30;;;;;;;11.37;9.00;;;;;;;10.11;64.56;153956.44;5021784;28;20443;-95
2021/05/03 08:59:06;;;;;;;11.07;9.53;;;;;;;10.27;64.04;153997.91;5009184;28;20427;-95
2021/05/03 09:01:43;;;;;;;12.17;10.10;;;;;;;10.15;63.46;153966.88;5004699;28;20426;-96
2021/05/03 09:07:26;;;;;;;12.50;9.17;;;;;;;10.33;63.53;154012.16;5055976;28;20517;-96
2021/05/03 09:10:12;;;;;;;11.50;8.97;;;;;;;10.44;62.08;154039.34;5055464;28;20454;-96
2021/05/03 09:12:48;;;;;;;12.90;9.17;;;;;;;10.70;61.83;154107.97;5037368;28;20454;-96
2021/05/03 09:15:24;;;;;;;10.80;8.37;;;;;;;10.86;59.67;154149.41;5054007;28;20508;-96
2021/05/03 09:17:59;;;;;;;8.97;8.07;;;;;;;11.01;59.83;154188.25;5053602;28;20434;-95
2021/05/03 09:20:34;;;;;;;9.87;8.87;;;;;;;11.06;57.58;154199.94;5037562;28;20440;-96
2021/05/03 09:23:16;;;;;;;11.90;8.40;;;;;;;10.95;57.44;154171.44;5037092;28;20446;-95
2021/05/03 09:25:54;;;;;;;9.70;8.70;;;;;;;10.75;57.20;154120.91;5054427;28;20419;-95
2021/05/03 09:28:31;;;;;;;10.10;9.07;;;;;;;10.61;58.67;154083.38;5037237;28;20447;-96
2021/05/03 09:31:06;;;;;;;10.03;8.70;;;;;;;10.61;58.04;154084.69;5057716;28;20446;-96
2021/05/03 09:33:41;;;;;;;9.10;8.27;;;;;;;10.73;58.81;154115.75;5055138;28;20904;-96
2021/05/03 09:36:21;;;;;;;8.70;7.83;;;;;;;10.71;58.98;154110.56;5055988;28;20862;-96
2021/05/03 09:38:56;;;;;;;8.90;8.00;;;;;;;10.58;60.65;154076.91;5044001;28;20438;-96
2021/05/03 09:41:32;;;;;;;8.60;7.80;;;;;;;10.62;58.46;154087.25;5053199;28;20424;-96
2021/05/03 09:44:08;;;;;;;8.50;7.60;;;;;;;10.50;60.63;154056.19;5053802;28;20453;-90
2021/05/03 09:46:46;;;;;;;8.80;7.90;;;;;;;10.39;59.43;154029.00;5055565;28;20435;-95
2021/05/03 09:49:21;;;;;;;9.23;8.20;;;;;;;10.48;60.38;154051.03;5056901;28;20432;-96
2021/05/03 09:51:59;;;;;;;9.53;8.63;;;;;;;10.49;61.27;154052.28;5058493;28;20438;-96
2021/05/03 09:54:36;;;;;;;9.30;8.40;;;;;;;10.56;65.94;154070.44;5057375;28;20554;-95
2021/05/03 09:57:11;;;;;;;10.37;8.53;;;;;;;10.57;64.92;154073.00;5044393;28;20435;-96
2021/05/03 09:59:48;;;;;;;9.97;8.97;;;;;;;10.65;63.93;154093.72;5059877;28;20412;-96
2021/05/03 10:02:25;;;;;;;8.43;7.50;;;;;;;10.64;61.09;154092.47;5057766;28;20430;-96
2021/05/03 10:05:03;;;;;;;9.27;8.37;;;;;;;10.79;59.80;154131.28;5040661;28;20466;-96
2021/05/03 10:07:40;;;;;;;8.97;7.87;;;;;;;10.94;61.58;154168.81;5040396;28;20462;-96
2021/05/03 10:10:17;;;;;;;9.60;7.60;;;;;;;11.21;59.16;154238.78;5056794;28;20439;-94
2021/05/03 10:12:52;;;;;;;9.53;8.53;;;;;;;11.31;54.29;154263.38;5040794;28;20444;-96
2021/05/03 10:15:28;;;;;;;8.03;7.23;;;;;;;11.46;58.11;154303.53;5057640;28;20523;-96
2021/05/03 10:18:03;;;;;;;8.30;7.40;;;;;;;11.75;58.00;154376.19;5057644;28;20438;-96
2021/05/03 10:20:39;;;;;;;9.10;8.20;;;;;;;11.89;63.20;154412.44;5057703;28;20443;-96
2021/05/03 10:23:15;;;;;;;8.70;7.90;;;;;;;11.94;63.04;154426.72;5057190;28;20467;-96
2021/05/03 10:25:55;;;;;;;8.03;7.20;;;;;;;11.97;53.01;154434.50;5056924;28;20492;-96
2021/05/03 10:28:30;;;;;;;7.07;6.37;;;;;;;12.02;51.32;154447.44;5057365;28;20438;-96
2021/05/03 10:31:06;;;;;;;6.93;6.07;;;;;;;12.01;50.71;154443.59;5057173;28;20491;-95
2021/05/03 10:33:41;;;;;;;6.93;6.17;;;;;;;12.16;57.42;154482.47;5042022;28;20473;-96
2021/05/03 10:36:32;;;;;;;6.50;5.90;;;;;;;12.27;51.93;154509.69;5066882;28;20984;-96
2021/05/03 10:39:35;;;;;;;6.13;5.53;;;;;;;12.34;53.70;154527.88;5077460;28;20411;-91
2021/05/03 10:42:11;;;;;;;6.50;5.90;;;;;;;12.49;54.13;154568.06;5067735;28;20449;-94
2021/05/03 10:45:10;;;;;;;6.50;5.90;;;;;;;12.61;50.46;154597.84;5056088;28;20452;-96
2021/05/03 10:47:49;;;;;;;7.30;6.67;;;;;;;12.60;55.36;154595.28;5038782;28;20446;-92
2021/05/03 10:50:40;;;;;;;6.80;5.40;;;;;;;12.59;48.62;154592.69;5039078;28;20450;-94
2021/05/03 10:53:26;;;;;;;6.13;4.90;;;;;;;12.47;47.19;154561.59;5024629;28;20432;-96
2021/05/03 10:56:02;;;;;;;5.90;5.30;;;;;;;12.54;53.12;154579.72;5056512;28;20430;-96
2021/05/03 10:59:06;;;;;;;5.63;5.13;;;;;;;12.54;49.66;154579.72;5042438;28;20433;-96
2021/05/03 11:02:06;;;;;;;4.90;4.50;;;;;;;12.16;46.59;154482.47;5072797;28;20438;-96
2021/05/03 11:05:09;;;;;;;5.43;4.90;;;;;;;12.17;51.41;154486.38;5056355;28;20544;-96
2021/05/03 11:08:29;;;;;;;5.40;4.90;;;;;;;12.23;53.84;154501.91;5065008;28;20418;-96
2021/05/03 11:11:09;;;;;;;5.17;4.17;;;;;;;12.21;50.65;154495.41;5043151;28;20448;-95
2021/05/03 11:13:53;;;;;;;4.93;4.53;;;;;;;12.27;48.37;154511.00;5040303;28;20466;-96
2021/05/03 11:16:54;;;;;;;5.10;4.60;;;;;;;12.33;51.06;154525.25;5039256;28;20438;-96
2021/05/03 11:22:20;;;;;;;5.00;4.50;;;;;;;12.52;50.14;154574.53;5976959;23;21252;-76
2021/05/03 11:24:58;;;;;;;4.53;3.77;;;;;;;12.59;47.17;154594.00;4950310;29;20912;-76
2021/05/03 11:27:38;;;;;;;3.77;3.47;;;;;;;12.46;48.45;154558.97;4955742;28;20616;-76
2021/05/03 11:30:15;;;;;;;4.37;3.43;;;;;;;12.54;47.51;154581.03;4955601;29;20522;-76
2021/05/03 11:32:52;;;;;;;4.57;3.47;;;;;;;12.57;48.45;154587.50;4954502;29;20938;-76
2021/05/03 11:35:32;;;;;;;3.53;3.23;;;;;;;12.56;49.43;154584.91;4953587;29;20534;-76
2021/05/03 11:38:22;;;;;;;4.10;3.70;;;;;;;12.73;48.91;154629.00;4953907;29;20746;-76
2021/05/03 11:41:05;;;;;;;4.93;4.43;;;;;;;12.74;49.02;154631.56;4953149;29;21425;-76
2021/05/03 11:43:56;;;;;;;4.10;3.70;;;;;;;12.76;51.18;154636.81;4938985;29;20447;-76
2021/05/03 11:46:35;;;;;;;5.20;3.97;;;;;;;12.97;46.65;154691.28;4953724;29;20451;-76
2021/05/03 11:49:16;;;;;;;4.30;3.57;;;;;;;13.14;45.40;154735.41;4954104;29;20419;-76
2021/05/03 11:51:52;;;;;;;4.33;3.93;;;;;;;13.19;48.08;154747.06;4954923;28;20539;-76
2021/05/03 11:54:29;;;;;;;4.37;3.97;;;;;;;13.07;41.81;154717.25;4953954;29;20486;-76
2021/05/03 11:57:06;;;;;;;3.80;3.40;;;;;;;13.14;42.91;154734.09;4951366;28;20453;-76
2021/05/03 11:59:41;;;;;;;3.73;3.43;;;;;;;13.14;43.74;154735.41;4951091;29;20457;-76
2021/05/03 12:02:17;;;;;;;5.33;3.70;;;;;;;13.26;49.59;154766.53;4952849;29;20472;-76
2021/05/03 12:04:52;;;;;;;4.20;3.80;;;;;;;13.21;47.60;154753.56;4952662;29;20901;-76
2021/05/03 12:07:29;;;;;;;4.17;3.77;;;;;;;13.41;44.48;154805.50;4953333;28;20821;-76
2021/05/03 12:10:08;;;;;;;4.07;3.60;;;;;;;13.54;52.78;154837.91;4952660;29;20824;-76
2021/05/03 12:12:45;;;;;;;4.40;4.00;;;;;;;13.56;44.66;154843.09;4952580;29;20455;-76
2021/05/03 12:15:21;;;;;;;4.33;3.93;;;;;;;13.56;47.75;154841.78;4936104;29;20469;-77
2021/05/03 12:17:58;;;;;;;4.30;3.90;;;;;;;13.58;49.44;154848.28;4924736;29;20488;-76
2021/05/03 12:20:34;;;;;;;4.33;3.93;;;;;;;13.60;43.27;154853.50;4953912;28;20441;-76
2021/05/03 12:23:10;;;;;;;4.17;3.77;;;;;;;13.51;43.23;154830.13;4952598;29;21034;-76
2021/05/03 12:25:49;;;;;;;4.90;3.57;;;;;;;13.31;48.71;154779.56;4951054;28;20432;-76